sensor_id;sensor_type;location;lat;lon;timestamp;P1;durP1;ratioP1;P2;durP2;ratioP2
35977;SDS011;22056;0.000;0.000;2022-08-19T00:00:18;2.50;;;2.30;;
35977;SDS011;22056;0.000;0.000;2022-08-19T00:02:44;3.10;;;2.30;;
35977;SDS011;22056;0.000;0.000;2022-08-19T00:05:11;2.92;;;2.03;;
35977;SDS011;22056;0.000;0.000;2022-08-19T00:07:38;3.08;;;2.05;;
35977;SDS011;22056;0.000;0.000;2022-08-19T00:10:05;3.47;;;2.10;;
35977;SDS011;22056;0.000;0.000;2022-08-19T00:12:31;2.30;;;2.00;;
35977;SDS011;22056;0.000;0.000;2022-08-19T00:14:57;2.42;;;1.85;;
35977;SDS011;22056;0.000;0.000;2022-08-19T00:17:24;2.35;;;1.95;;
35977;SDS011;22056;0.000;0.000;2022-08-19T00:19:50;2.80;;;2.58;;
35977;SDS011;22056;0.000;0.000;2022-08-19T00:22:16;3.28;;;2.08;;
35977;SDS011;22056;0.000;0.000;2022-08-19T00:24:43;3.10;;;2.25;;
35977;SDS011;22056;0.000;0.000;2022-08-19T00:27:10;3.10;;;2.60;;
35977;SDS011;22056;0.000;0.000;2022-08-19T00:29:37;2.30;;;2.10;;
35977;SDS011;22056;0.000;0.000;2022-08-19T00:32:04;2.22;;;1.98;;
35977;SDS011;22056;0.000;0.000;2022-08-19T00:34:30;2.53;;;1.90;;
35977;SDS011;22056;0.000;0.000;2022-08-19T00:36:56;1.80;;;1.70;;
35977;SDS011;22056;0.000;0.000;2022-08-19T00:39:23;3.35;;;2.47;;
35977;SDS011;22056;0.000;0.000;2022-08-19T00:41:50;2.15;;;1.95;;
35977;SDS011;22056;0.000;0.000;2022-08-19T00:44:22;2.30;;;2.10;;
35977;SDS011;22056;0.000;0.000;2022-08-19T00:46:49;2.88;;;1.90;;
35977;SDS011;22056;0.000;0.000;2022-08-19T00:49:34;3.08;;;2.03;;
35977;SDS011;22056;0.000;0.000;2022-08-19T00:52:03;2.33;;;2.13;;
35977;SDS011;22056;0.000;0.000;2022-08-19T00:54:30;2.20;;;2.00;;
35977;SDS011;22056;0.000;0.000;2022-08-19T00:56:57;3.00;;;2.40;;
35977;SDS011;22056;0.000;0.000;2022-08-19T00:59:24;2.25;;;2.05;;
35977;SDS011;22056;0.000;0.000;2022-08-19T01:01:51;2.50;;;2.30;;
35977;SDS011;22056;0.000;0.000;2022-08-19T01:04:18;2.40;;;2.00;;
35977;SDS011;22056;0.000;0.000;2022-08-19T01:06:44;2.20;;;1.90;;
35977;SDS011;22056;0.000;0.000;2022-08-19T01:09:10;2.10;;;1.90;;
35977;SDS011;22056;0.000;0.000;2022-08-19T01:11:38;2.10;;;1.90;;
35977;SDS011;22056;0.000;0.000;2022-08-19T01:14:06;2.63;;;2.17;;
35977;SDS011;22056;0.000;0.000;2022-08-19T01:16:32;3.15;;;2.45;;
35977;SDS011;22056;0.000;0.000;2022-08-19T01:18:59;1.70;;;1.60;;
35977;SDS011;22056;0.000;0.000;2022-08-19T01:23:52;2.63;;;2.42;;
35977;SDS011;22056;0.000;0.000;2022-08-19T01:26:20;3.15;;;1.90;;
35977;SDS011;22056;0.000;0.000;2022-08-19T01:28:48;2.22;;;2.03;;
35977;SDS011;22056;0.000;0.000;2022-08-19T01:31:16;2.17;;;1.98;;
35977;SDS011;22056;0.000;0.000;2022-08-19T01:33:43;2.45;;;2.10;;
35977;SDS011;22056;0.000;0.000;2022-08-19T01:36:31;2.33;;;1.88;;
35977;SDS011;22056;0.000;0.000;2022-08-19T01:38:58;2.10;;;1.90;;
35977;SDS011;22056;0.000;0.000;2022-08-19T01:41:25;1.73;;;1.63;;
35977;SDS011;22056;0.000;0.000;2022-08-19T01:43:51;2.38;;;1.83;;
35977;SDS011;22056;0.000;0.000;2022-08-19T01:46:18;2.17;;;1.90;;
35977;SDS011;22056;0.000;0.000;2022-08-19T01:48:45;2.40;;;2.20;;
35977;SDS011;22056;0.000;0.000;2022-08-19T01:51:12;3.50;;;2.42;;
35977;SDS011;22056;0.000;0.000;2022-08-19T01:53:39;3.53;;;1.73;;
35977;SDS011;22056;0.000;0.000;2022-08-19T01:56:05;2.53;;;1.83;;
35977;SDS011;22056;0.000;0.000;2022-08-19T01:58:33;2.10;;;1.80;;
35977;SDS011;22056;0.000;0.000;2022-08-19T02:01:01;2.35;;;1.85;;
35977;SDS011;22056;0.000;0.000;2022-08-19T02:03:28;2.08;;;1.88;;
35977;SDS011;22056;0.000;0.000;2022-08-19T02:05:55;2.55;;;2.10;;
35977;SDS011;22056;0.000;0.000;2022-08-19T02:08:22;2.70;;;1.90;;
35977;SDS011;22056;0.000;0.000;2022-08-19T02:10:49;2.92;;;2.13;;
35977;SDS011;22056;0.000;0.000;2022-08-19T02:13:16;1.90;;;1.58;;
35977;SDS011;22056;0.000;0.000;2022-08-19T02:15:42;2.28;;;1.80;;
35977;SDS011;22056;0.000;0.000;2022-08-19T02:18:09;2.20;;;2.00;;
35977;SDS011;22056;0.000;0.000;2022-08-19T02:20:36;2.45;;;2.20;;
35977;SDS011;22056;0.000;0.000;2022-08-19T02:23:03;2.35;;;2.05;;
35977;SDS011;22056;0.000;0.000;2022-08-19T02:25:29;2.30;;;2.10;;
35977;SDS011;22056;0.000;0.000;2022-08-19T02:27:55;2.10;;;1.90;;
35977;SDS011;22056;0.000;0.000;2022-08-19T02:30:22;2.28;;;2.08;;
35977;SDS011;22056;0.000;0.000;2022-08-19T02:32:49;1.90;;;1.80;;
35977;SDS011;22056;0.000;0.000;2022-08-19T02:35:16;2.00;;;1.85;;
35977;SDS011;22056;0.000;0.000;2022-08-19T02:37:42;1.85;;;1.75;;
35977;SDS011;22056;0.000;0.000;2022-08-19T02:40:28;3.40;;;1.95;;
35977;SDS011;22056;0.000;0.000;2022-08-19T02:42:54;1.83;;;1.70;;
35977;SDS011;22056;0.000;0.000;2022-08-19T02:45:21;1.92;;;1.83;;
35977;SDS011;22056;0.000;0.000;2022-08-19T02:47:47;1.83;;;1.73;;
35977;SDS011;22056;0.000;0.000;2022-08-19T02:50:14;1.80;;;1.70;;
35977;SDS011;22056;0.000;0.000;2022-08-19T02:52:40;2.08;;;1.83;;
35977;SDS011;22056;0.000;0.000;2022-08-19T02:55:07;1.90;;;1.67;;
35977;SDS011;22056;0.000;0.000;2022-08-19T02:57:33;2.45;;;2.03;;
35977;SDS011;22056;0.000;0.000;2022-08-19T03:00:00;1.83;;;1.70;;
35977;SDS011;22056;0.000;0.000;2022-08-19T03:02:27;2.22;;;1.95;;
35977;SDS011;22056;0.000;0.000;2022-08-19T03:04:53;2.22;;;1.67;;
35977;SDS011;22056;0.000;0.000;2022-08-19T03:07:19;2.03;;;1.83;;
35977;SDS011;22056;0.000;0.000;2022-08-19T03:09:45;2.47;;;1.92;;
35977;SDS011;22056;0.000;0.000;2022-08-19T03:12:11;3.15;;;2.20;;
35977;SDS011;22056;0.000;0.000;2022-08-19T03:14:38;1.85;;;1.75;;
35977;SDS011;22056;0.000;0.000;2022-08-19T03:17:04;2.28;;;2.08;;
35977;SDS011;22056;0.000;0.000;2022-08-19T03:19:30;2.20;;;1.65;;
35977;SDS011;22056;0.000;0.000;2022-08-19T03:21:57;3.13;;;1.50;;
35977;SDS011;22056;0.000;0.000;2022-08-19T03:24:24;2.13;;;1.92;;
35977;SDS011;22056;0.000;0.000;2022-08-19T03:26:52;1.77;;;1.63;;
35977;SDS011;22056;0.000;0.000;2022-08-19T03:29:22;3.65;;;1.88;;
35977;SDS011;22056;0.000;0.000;2022-08-19T03:31:48;2.53;;;1.95;;
35977;SDS011;22056;0.000;0.000;2022-08-19T03:34:18;1.70;;;1.60;;
35977;SDS011;22056;0.000;0.000;2022-08-19T03:36:45;1.88;;;1.63;;
35977;SDS011;22056;0.000;0.000;2022-08-19T03:39:12;1.80;;;1.70;;
35977;SDS011;22056;0.000;0.000;2022-08-19T03:41:39;1.90;;;1.80;;
35977;SDS011;22056;0.000;0.000;2022-08-19T03:44:06;2.47;;;1.70;;
35977;SDS011;22056;0.000;0.000;2022-08-19T03:46:33;2.20;;;2.00;;
35977;SDS011;22056;0.000;0.000;2022-08-19T03:49:01;1.70;;;1.60;;
35977;SDS011;22056;0.000;0.000;2022-08-19T03:51:36;2.03;;;1.90;;
35977;SDS011;22056;0.000;0.000;2022-08-19T03:54:04;1.95;;;1.75;;
35977;SDS011;22056;0.000;0.000;2022-08-19T03:56:31;2.25;;;2.05;;
35977;SDS011;22056;0.000;0.000;2022-08-19T03:58:59;2.00;;;1.45;;
35977;SDS011;22056;0.000;0.000;2022-08-19T04:01:27;2.00;;;1.80;;
35977;SDS011;22056;0.000;0.000;2022-08-19T04:03:54;2.10;;;1.90;;
35977;SDS011;22056;0.000;0.000;2022-08-19T04:06:25;1.70;;;1.60;;
35977;SDS011;22056;0.000;0.000;2022-08-19T04:08:52;2.10;;;1.92;;
35977;SDS011;22056;0.000;0.000;2022-08-19T04:11:20;2.15;;;2.00;;
35977;SDS011;22056;0.000;0.000;2022-08-19T04:13:47;2.70;;;2.08;;
35977;SDS011;22056;0.000;0.000;2022-08-19T04:16:14;2.67;;;1.80;;
35977;SDS011;22056;0.000;0.000;2022-08-19T04:18:40;3.92;;;1.92;;
35977;SDS011;22056;0.000;0.000;2022-08-19T04:21:08;2.40;;;1.83;;
35977;SDS011;22056;0.000;0.000;2022-08-19T04:23:34;1.63;;;1.52;;
35977;SDS011;22056;0.000;0.000;2022-08-19T04:26:03;2.45;;;1.70;;
35977;SDS011;22056;0.000;0.000;2022-08-19T04:28:30;1.92;;;1.48;;
35977;SDS011;22056;0.000;0.000;2022-08-19T04:30:56;1.83;;;1.65;;
35977;SDS011;22056;0.000;0.000;2022-08-19T04:33:24;2.00;;;1.90;;
35977;SDS011;22056;0.000;0.000;2022-08-19T04:35:51;1.88;;;1.58;;
35977;SDS011;22056;0.000;0.000;2022-08-19T04:38:18;1.33;;;1.23;;
35977;SDS011;22056;0.000;0.000;2022-08-19T04:40:49;2.45;;;1.55;;
35977;SDS011;22056;0.000;0.000;2022-08-19T04:43:35;1.92;;;1.63;;
35977;SDS011;22056;0.000;0.000;2022-08-19T04:46:07;2.33;;;1.20;;
35977;SDS011;22056;0.000;0.000;2022-08-19T04:51:00;3.03;;;1.75;;
35977;SDS011;22056;0.000;0.000;2022-08-19T04:53:30;2.33;;;1.58;;
35977;SDS011;22056;0.000;0.000;2022-08-19T04:56:03;1.70;;;1.60;;
35977;SDS011;22056;0.000;0.000;2022-08-19T04:58:30;2.35;;;1.35;;
35977;SDS011;22056;0.000;0.000;2022-08-19T05:00:56;1.80;;;1.42;;
35977;SDS011;22056;0.000;0.000;2022-08-19T05:03:25;3.17;;;1.70;;
35977;SDS011;22056;0.000;0.000;2022-08-19T05:05:52;2.78;;;1.63;;
35977;SDS011;22056;0.000;0.000;2022-08-19T05:08:19;2.67;;;1.58;;
35977;SDS011;22056;0.000;0.000;2022-08-19T05:10:47;3.50;;;1.70;;
35977;SDS011;22056;0.000;0.000;2022-08-19T05:13:14;2.53;;;1.77;;
35977;SDS011;22056;0.000;0.000;2022-08-19T05:15:41;2.30;;;1.60;;
35977;SDS011;22056;0.000;0.000;2022-08-19T05:18:08;1.65;;;1.45;;
35977;SDS011;22056;0.000;0.000;2022-08-19T05:20:52;1.98;;;1.70;;
35977;SDS011;22056;0.000;0.000;2022-08-19T05:23:37;4.07;;;1.75;;
35977;SDS011;22056;0.000;0.000;2022-08-19T05:26:03;2.60;;;1.80;;
35977;SDS011;22056;0.000;0.000;2022-08-19T05:28:30;2.50;;;1.92;;
35977;SDS011;22056;0.000;0.000;2022-08-19T05:30:56;2.10;;;1.90;;
35977;SDS011;22056;0.000;0.000;2022-08-19T05:33:22;3.75;;;1.90;;
35977;SDS011;22056;0.000;0.000;2022-08-19T05:35:49;4.15;;;2.10;;
35977;SDS011;22056;0.000;0.000;2022-08-19T05:38:16;2.80;;;1.80;;
35977;SDS011;22056;0.000;0.000;2022-08-19T05:40:43;2.63;;;1.77;;
35977;SDS011;22056;0.000;0.000;2022-08-19T05:43:13;2.45;;;1.95;;
35977;SDS011;22056;0.000;0.000;2022-08-19T05:45:42;3.03;;;1.83;;
35977;SDS011;22056;0.000;0.000;2022-08-19T05:48:10;6.15;;;2.10;;
35977;SDS011;22056;0.000;0.000;2022-08-19T05:50:37;2.63;;;2.08;;
35977;SDS011;22056;0.000;0.000;2022-08-19T05:53:03;4.30;;;2.15;;
35977;SDS011;22056;0.000;0.000;2022-08-19T05:55:29;2.22;;;1.90;;
35977;SDS011;22056;0.000;0.000;2022-08-19T05:57:56;3.88;;;2.17;;
35977;SDS011;22056;0.000;0.000;2022-08-19T06:00:23;4.38;;;2.33;;
35977;SDS011;22056;0.000;0.000;2022-08-19T06:02:49;2.67;;;2.00;;
35977;SDS011;22056;0.000;0.000;2022-08-19T06:05:16;4.75;;;2.30;;
35977;SDS011;22056;0.000;0.000;2022-08-19T06:07:42;3.47;;;2.17;;
35977;SDS011;22056;0.000;0.000;2022-08-19T06:10:09;4.40;;;2.22;;
35977;SDS011;22056;0.000;0.000;2022-08-19T06:12:36;4.22;;;2.08;;
35977;SDS011;22056;0.000;0.000;2022-08-19T06:15:04;4.22;;;2.20;;
35977;SDS011;22056;0.000;0.000;2022-08-19T06:17:31;3.17;;;2.38;;
35977;SDS011;22056;0.000;0.000;2022-08-19T06:19:59;5.60;;;2.03;;
35977;SDS011;22056;0.000;0.000;2022-08-19T06:22:26;3.00;;;2.05;;
35977;SDS011;22056;0.000;0.000;2022-08-19T06:24:53;6.45;;;2.60;;
35977;SDS011;22056;0.000;0.000;2022-08-19T06:27:20;4.38;;;2.40;;
35977;SDS011;22056;0.000;0.000;2022-08-19T06:29:46;3.15;;;1.75;;
35977;SDS011;22056;0.000;0.000;2022-08-19T06:32:14;5.97;;;1.98;;
35977;SDS011;22056;0.000;0.000;2022-08-19T06:34:41;3.50;;;2.22;;
35977;SDS011;22056;0.000;0.000;2022-08-19T06:37:08;3.30;;;2.17;;
35977;SDS011;22056;0.000;0.000;2022-08-19T06:39:36;3.75;;;2.20;;
35977;SDS011;22056;0.000;0.000;2022-08-19T06:42:04;2.53;;;2.30;;
35977;SDS011;22056;0.000;0.000;2022-08-19T06:44:34;6.85;;;2.58;;
35977;SDS011;22056;0.000;0.000;2022-08-19T06:47:02;3.28;;;2.10;;
35977;SDS011;22056;0.000;0.000;2022-08-19T06:49:29;3.97;;;2.33;;
35977;SDS011;22056;0.000;0.000;2022-08-19T06:51:59;4.05;;;2.13;;
35977;SDS011;22056;0.000;0.000;2022-08-19T06:54:26;6.85;;;2.85;;
35977;SDS011;22056;0.000;0.000;2022-08-19T06:56:55;8.00;;;3.08;;
35977;SDS011;22056;0.000;0.000;2022-08-19T06:59:22;3.60;;;2.40;;
35977;SDS011;22056;0.000;0.000;2022-08-19T07:01:53;4.85;;;2.50;;
35977;SDS011;22056;0.000;0.000;2022-08-19T07:04:22;4.95;;;2.45;;
35977;SDS011;22056;0.000;0.000;2022-08-19T07:06:49;4.05;;;2.58;;
35977;SDS011;22056;0.000;0.000;2022-08-19T07:09:16;5.32;;;2.60;;
35977;SDS011;22056;0.000;0.000;2022-08-19T07:11:47;5.82;;;2.55;;
35977;SDS011;22056;0.000;0.000;2022-08-19T07:14:15;4.00;;;2.60;;
35977;SDS011;22056;0.000;0.000;2022-08-19T07:16:43;6.63;;;2.50;;
35977;SDS011;22056;0.000;0.000;2022-08-19T07:19:11;3.83;;;2.50;;
35977;SDS011;22056;0.000;0.000;2022-08-19T07:21:37;5.60;;;2.80;;
35977;SDS011;22056;0.000;0.000;2022-08-19T07:24:04;4.40;;;2.53;;
35977;SDS011;22056;0.000;0.000;2022-08-19T07:26:31;4.85;;;1.98;;
35977;SDS011;22056;0.000;0.000;2022-08-19T07:28:58;4.22;;;2.38;;
35977;SDS011;22056;0.000;0.000;2022-08-19T07:31:26;5.45;;;2.72;;
35977;SDS011;22056;0.000;0.000;2022-08-19T07:33:54;5.82;;;2.90;;
35977;SDS011;22056;0.000;0.000;2022-08-19T07:36:23;4.78;;;2.55;;
35977;SDS011;22056;0.000;0.000;2022-08-19T07:38:50;6.57;;;2.80;;
35977;SDS011;22056;0.000;0.000;2022-08-19T07:41:18;5.57;;;2.60;;
35977;SDS011;22056;0.000;0.000;2022-08-19T07:43:45;9.43;;;3.00;;
35977;SDS011;22056;0.000;0.000;2022-08-19T07:46:12;5.80;;;2.72;;
35977;SDS011;22056;0.000;0.000;2022-08-19T07:48:39;4.78;;;2.72;;
35977;SDS011;22056;0.000;0.000;2022-08-19T07:51:07;6.00;;;3.03;;
35977;SDS011;22056;0.000;0.000;2022-08-19T07:53:33;8.27;;;3.42;;
35977;SDS011;22056;0.000;0.000;2022-08-19T07:56:00;9.93;;;3.58;;
35977;SDS011;22056;0.000;0.000;2022-08-19T07:58:30;7.18;;;2.78;;
35977;SDS011;22056;0.000;0.000;2022-08-19T08:00:57;7.45;;;3.30;;
35977;SDS011;22056;0.000;0.000;2022-08-19T08:03:26;6.35;;;3.35;;
35977;SDS011;22056;0.000;0.000;2022-08-19T08:06:14;7.68;;;3.60;;
35977;SDS011;22056;0.000;0.000;2022-08-19T08:09:00;7.32;;;3.20;;
35977;SDS011;22056;0.000;0.000;2022-08-19T08:11:42;6.00;;;3.20;;
35977;SDS011;22056;0.000;0.000;2022-08-19T08:14:19;4.97;;;2.90;;
35977;SDS011;22056;0.000;0.000;2022-08-19T08:16:48;11.20;;;3.55;;
35977;SDS011;22056;0.000;0.000;2022-08-19T08:19:16;7.32;;;3.50;;
35977;SDS011;22056;0.000;0.000;2022-08-19T08:21:43;10.23;;;3.95;;
35977;SDS011;22056;0.000;0.000;2022-08-19T08:24:10;17.35;;;3.78;;
35977;SDS011;22056;0.000;0.000;2022-08-19T08:26:37;7.05;;;3.10;;
35977;SDS011;22056;0.000;0.000;2022-08-19T08:29:03;6.20;;;3.30;;
35977;SDS011;22056;0.000;0.000;2022-08-19T08:31:29;14.20;;;3.60;;
35977;SDS011;22056;0.000;0.000;2022-08-19T08:33:56;4.57;;;2.17;;
35977;SDS011;22056;0.000;0.000;2022-08-19T08:36:22;6.93;;;2.97;;
35977;SDS011;22056;0.000;0.000;2022-08-19T08:38:49;10.88;;;3.40;;
35977;SDS011;22056;0.000;0.000;2022-08-19T08:41:31;10.63;;;3.05;;
35977;SDS011;22056;0.000;0.000;2022-08-19T08:44:01;9.75;;;3.22;;
35977;SDS011;22056;0.000;0.000;2022-08-19T08:46:38;10.00;;;3.58;;
35977;SDS011;22056;0.000;0.000;2022-08-19T08:49:52;9.40;;;3.85;;
35977;SDS011;22056;0.000;0.000;2022-08-19T08:51:56;8.68;;;4.03;;
35977;SDS011;22056;0.000;0.000;2022-08-19T08:56:51;6.28;;;3.17;;
35977;SDS011;22056;0.000;0.000;2022-08-19T09:01:44;7.57;;;3.40;;
35977;SDS011;22056;0.000;0.000;2022-08-19T09:04:10;8.05;;;3.03;;
35977;SDS011;22056;0.000;0.000;2022-08-19T09:06:49;8.50;;;3.17;;
35977;SDS011;22056;0.000;0.000;2022-08-19T09:16:42;6.93;;;2.83;;
35977;SDS011;22056;0.000;0.000;2022-08-19T09:19:09;7.07;;;3.17;;
35977;SDS011;22056;0.000;0.000;2022-08-19T09:21:36;14.75;;;3.65;;
35977;SDS011;22056;0.000;0.000;2022-08-19T09:24:04;5.90;;;2.63;;
35977;SDS011;22056;0.000;0.000;2022-08-19T09:26:31;7.80;;;2.80;;
35977;SDS011;22056;0.000;0.000;2022-08-19T09:28:57;9.00;;;2.90;;
35977;SDS011;22056;0.000;0.000;2022-08-19T09:31:26;9.90;;;3.47;;
35977;SDS011;22056;0.000;0.000;2022-08-19T09:33:53;6.50;;;2.88;;
35977;SDS011;22056;0.000;0.000;2022-08-19T09:36:23;11.27;;;3.25;;
35977;SDS011;22056;0.000;0.000;2022-08-19T09:38:50;4.43;;;2.50;;
35977;SDS011;22056;0.000;0.000;2022-08-19T09:41:20;6.80;;;2.85;;
35977;SDS011;22056;0.000;0.000;2022-08-19T09:43:47;7.80;;;2.88;;
35977;SDS011;22056;0.000;0.000;2022-08-19T09:46:17;5.28;;;2.55;;
35977;SDS011;22056;0.000;0.000;2022-08-19T09:48:44;12.95;;;3.40;;
35977;SDS011;22056;0.000;0.000;2022-08-19T09:51:14;6.70;;;3.55;;
35977;SDS011;22056;0.000;0.000;2022-08-19T09:53:41;5.45;;;2.88;;
35977;SDS011;22056;0.000;0.000;2022-08-19T09:56:08;6.13;;;2.53;;
35977;SDS011;22056;0.000;0.000;2022-08-19T09:58:34;5.95;;;2.33;;
35977;SDS011;22056;0.000;0.000;2022-08-19T10:01:01;6.40;;;2.83;;
35977;SDS011;22056;0.000;0.000;2022-08-19T10:03:28;5.75;;;2.47;;
35977;SDS011;22056;0.000;0.000;2022-08-19T10:05:55;6.15;;;2.90;;
35977;SDS011;22056;0.000;0.000;2022-08-19T10:08:23;5.10;;;2.58;;
35977;SDS011;22056;0.000;0.000;2022-08-19T10:10:51;6.45;;;2.78;;
35977;SDS011;22056;0.000;0.000;2022-08-19T10:13:19;6.85;;;3.03;;
35977;SDS011;22056;0.000;0.000;2022-08-19T10:15:50;8.13;;;2.63;;
35977;SDS011;22056;0.000;0.000;2022-08-19T10:18:18;6.28;;;2.60;;
35977;SDS011;22056;0.000;0.000;2022-08-19T10:20:48;4.28;;;2.05;;
35977;SDS011;22056;0.000;0.000;2022-08-19T10:23:15;8.40;;;2.90;;
35977;SDS011;22056;0.000;0.000;2022-08-19T10:25:43;9.43;;;3.25;;
35977;SDS011;22056;0.000;0.000;2022-08-19T10:28:10;6.25;;;2.67;;
35977;SDS011;22056;0.000;0.000;2022-08-19T10:30:37;7.93;;;2.25;;
35977;SDS011;22056;0.000;0.000;2022-08-19T10:33:04;6.60;;;2.75;;
35977;SDS011;22056;0.000;0.000;2022-08-19T10:35:31;7.85;;;2.90;;
35977;SDS011;22056;0.000;0.000;2022-08-19T10:37:57;6.53;;;2.58;;
35977;SDS011;22056;0.000;0.000;2022-08-19T10:40:27;3.83;;;2.13;;
35977;SDS011;22056;0.000;0.000;2022-08-19T10:42:54;7.40;;;2.80;;
35977;SDS011;22056;0.000;0.000;2022-08-19T10:45:21;7.95;;;2.47;;
35977;SDS011;22056;0.000;0.000;2022-08-19T10:47:52;9.15;;;2.70;;
35977;SDS011;22056;0.000;0.000;2022-08-19T10:50:19;13.02;;;2.88;;
35977;SDS011;22056;0.000;0.000;2022-08-19T10:53:04;13.18;;;2.60;;
35977;SDS011;22056;0.000;0.000;2022-08-19T10:55:30;11.15;;;2.88;;
35977;SDS011;22056;0.000;0.000;2022-08-19T10:58:16;8.48;;;2.63;;
35977;SDS011;22056;0.000;0.000;2022-08-19T11:00:53;9.70;;;2.95;;
35977;SDS011;22056;0.000;0.000;2022-08-19T11:03:20;8.23;;;2.22;;
35977;SDS011;22056;0.000;0.000;2022-08-19T11:05:46;7.63;;;2.47;;
35977;SDS011;22056;0.000;0.000;2022-08-19T11:08:14;9.10;;;3.00;;
35977;SDS011;22056;0.000;0.000;2022-08-19T11:10:43;8.38;;;2.85;;
35977;SDS011;22056;0.000;0.000;2022-08-19T11:13:09;6.72;;;2.50;;
35977;SDS011;22056;0.000;0.000;2022-08-19T11:15:36;9.23;;;2.95;;
35977;SDS011;22056;0.000;0.000;2022-08-19T11:18:03;7.15;;;2.78;;
35977;SDS011;22056;0.000;0.000;2022-08-19T11:20:30;13.07;;;2.95;;
35977;SDS011;22056;0.000;0.000;2022-08-19T11:22:56;7.70;;;2.25;;
35977;SDS011;22056;0.000;0.000;2022-08-19T11:25:22;5.05;;;2.45;;
35977;SDS011;22056;0.000;0.000;2022-08-19T11:27:48;5.43;;;2.50;;
35977;SDS011;22056;0.000;0.000;2022-08-19T11:30:17;5.72;;;2.95;;
35977;SDS011;22056;0.000;0.000;2022-08-19T11:32:43;6.40;;;2.67;;
35977;SDS011;22056;0.000;0.000;2022-08-19T11:35:09;6.18;;;2.53;;
35977;SDS011;22056;0.000;0.000;2022-08-19T11:37:36;8.43;;;2.80;;
35977;SDS011;22056;0.000;0.000;2022-08-19T11:40:03;10.30;;;2.83;;
35977;SDS011;22056;0.000;0.000;2022-08-19T11:42:31;7.93;;;2.63;;
35977;SDS011;22056;0.000;0.000;2022-08-19T11:45:15;9.30;;;3.38;;
35977;SDS011;22056;0.000;0.000;2022-08-19T11:47:41;8.38;;;2.83;;
35977;SDS011;22056;0.000;0.000;2022-08-19T11:50:09;6.13;;;2.65;;
35977;SDS011;22056;0.000;0.000;2022-08-19T11:52:35;6.63;;;2.67;;
35977;SDS011;22056;0.000;0.000;2022-08-19T11:55:01;5.47;;;2.40;;
35977;SDS011;22056;0.000;0.000;2022-08-19T11:57:27;6.60;;;2.38;;
35977;SDS011;22056;0.000;0.000;2022-08-19T11:59:54;7.00;;;2.45;;
35977;SDS011;22056;0.000;0.000;2022-08-19T12:02:20;6.45;;;2.35;;
35977;SDS011;22056;0.000;0.000;2022-08-19T12:04:46;6.57;;;2.70;;
35977;SDS011;22056;0.000;0.000;2022-08-19T12:07:13;5.32;;;2.60;;
35977;SDS011;22056;0.000;0.000;2022-08-19T12:09:39;10.35;;;2.88;;
35977;SDS011;22056;0.000;0.000;2022-08-19T12:12:05;8.07;;;2.20;;
35977;SDS011;22056;0.000;0.000;2022-08-19T12:14:32;5.38;;;2.22;;
35977;SDS011;22056;0.000;0.000;2022-08-19T12:16:58;9.38;;;2.55;;
35977;SDS011;22056;0.000;0.000;2022-08-19T12:19:25;7.32;;;2.75;;
35977;SDS011;22056;0.000;0.000;2022-08-19T12:21:51;7.50;;;2.70;;
35977;SDS011;22056;0.000;0.000;2022-08-19T12:24:21;9.07;;;2.60;;
35977;SDS011;22056;0.000;0.000;2022-08-19T12:26:50;10.65;;;2.67;;
35977;SDS011;22056;0.000;0.000;2022-08-19T12:29:16;7.03;;;2.60;;
35977;SDS011;22056;0.000;0.000;2022-08-19T12:31:42;6.22;;;2.58;;
35977;SDS011;22056;0.000;0.000;2022-08-19T12:34:08;9.02;;;2.53;;
35977;SDS011;22056;0.000;0.000;2022-08-19T12:36:35;9.32;;;3.00;;
35977;SDS011;22056;0.000;0.000;2022-08-19T12:39:01;6.88;;;3.03;;
35977;SDS011;22056;0.000;0.000;2022-08-19T12:41:28;5.90;;;2.90;;
35977;SDS011;22056;0.000;0.000;2022-08-19T12:43:54;7.75;;;2.80;;
35977;SDS011;22056;0.000;0.000;2022-08-19T12:46:20;5.25;;;2.42;;
35977;SDS011;22056;0.000;0.000;2022-08-19T12:48:47;7.55;;;2.35;;
35977;SDS011;22056;0.000;0.000;2022-08-19T12:51:14;6.90;;;2.80;;
35977;SDS011;22056;0.000;0.000;2022-08-19T12:53:41;6.78;;;2.08;;
35977;SDS011;22056;0.000;0.000;2022-08-19T12:56:08;5.07;;;2.20;;
35977;SDS011;22056;0.000;0.000;2022-08-19T12:58:34;9.25;;;2.47;;
35977;SDS011;22056;0.000;0.000;2022-08-19T13:01:07;16.98;;;3.42;;
35977;SDS011;22056;0.000;0.000;2022-08-19T13:03:35;15.38;;;3.38;;
35977;SDS011;22056;0.000;0.000;2022-08-19T13:06:01;13.70;;;3.15;;
35977;SDS011;22056;0.000;0.000;2022-08-19T13:08:28;7.47;;;3.13;;
35977;SDS011;22056;0.000;0.000;2022-08-19T13:10:54;14.27;;;3.50;;
35977;SDS011;22056;0.000;0.000;2022-08-19T13:13:20;14.95;;;3.40;;
35977;SDS011;22056;0.000;0.000;2022-08-19T13:15:47;7.72;;;3.03;;
35977;SDS011;22056;0.000;0.000;2022-08-19T13:18:13;10.30;;;2.47;;
35977;SDS011;22056;0.000;0.000;2022-08-19T13:20:39;7.50;;;3.05;;
35977;SDS011;22056;0.000;0.000;2022-08-19T13:23:06;5.80;;;2.33;;
35977;SDS011;22056;0.000;0.000;2022-08-19T13:25:32;7.30;;;2.80;;
35977;SDS011;22056;0.000;0.000;2022-08-19T13:27:59;8.38;;;2.70;;
35977;SDS011;22056;0.000;0.000;2022-08-19T13:30:25;7.53;;;2.20;;
35977;SDS011;22056;0.000;0.000;2022-08-19T13:33:10;7.60;;;2.50;;
35977;SDS011;22056;0.000;0.000;2022-08-19T13:35:39;9.43;;;3.08;;
35977;SDS011;22056;0.000;0.000;2022-08-19T13:38:05;13.45;;;3.58;;
35977;SDS011;22056;0.000;0.000;2022-08-19T13:40:32;9.13;;;2.75;;
35977;SDS011;22056;0.000;0.000;2022-08-19T13:42:58;11.90;;;3.65;;
35977;SDS011;22056;0.000;0.000;2022-08-19T13:45:25;12.25;;;3.38;;
35977;SDS011;22056;0.000;0.000;2022-08-19T13:47:54;6.53;;;2.80;;
35977;SDS011;22056;0.000;0.000;2022-08-19T13:50:22;8.07;;;2.88;;
35977;SDS011;22056;0.000;0.000;2022-08-19T13:52:50;9.38;;;2.90;;
35977;SDS011;22056;0.000;0.000;2022-08-19T13:55:17;12.35;;;2.85;;
35977;SDS011;22056;0.000;0.000;2022-08-19T13:57:43;7.10;;;2.65;;
35977;SDS011;22056;0.000;0.000;2022-08-19T14:00:12;9.93;;;3.10;;
35977;SDS011;22056;0.000;0.000;2022-08-19T14:02:39;8.50;;;3.25;;
35977;SDS011;22056;0.000;0.000;2022-08-19T14:05:06;10.68;;;2.85;;
35977;SDS011;22056;0.000;0.000;2022-08-19T14:07:33;15.18;;;3.35;;
35977;SDS011;22056;0.000;0.000;2022-08-19T14:09:59;9.15;;;3.53;;
35977;SDS011;22056;0.000;0.000;2022-08-19T14:12:25;8.52;;;2.30;;
35977;SDS011;22056;0.000;0.000;2022-08-19T14:14:51;8.88;;;2.45;;
35977;SDS011;22056;0.000;0.000;2022-08-19T14:17:17;10.05;;;2.53;;
35977;SDS011;22056;0.000;0.000;2022-08-19T14:19:44;6.82;;;2.33;;
35977;SDS011;22056;0.000;0.000;2022-08-19T14:22:10;9.45;;;2.17;;
35977;SDS011;22056;0.000;0.000;2022-08-19T14:24:39;10.30;;;2.45;;
35977;SDS011;22056;0.000;0.000;2022-08-19T14:27:06;4.25;;;2.35;;
35977;SDS011;22056;0.000;0.000;2022-08-19T14:29:33;9.27;;;2.92;;
35977;SDS011;22056;0.000;0.000;2022-08-19T14:31:59;10.73;;;2.83;;
35977;SDS011;22056;0.000;0.000;2022-08-19T14:34:26;5.68;;;2.35;;
35977;SDS011;22056;0.000;0.000;2022-08-19T14:36:52;11.40;;;2.78;;
35977;SDS011;22056;0.000;0.000;2022-08-19T14:39:18;8.63;;;2.70;;
35977;SDS011;22056;0.000;0.000;2022-08-19T14:41:45;8.52;;;2.40;;
35977;SDS011;22056;0.000;0.000;2022-08-19T14:44:11;8.50;;;2.20;;
35977;SDS011;22056;0.000;0.000;2022-08-19T14:46:38;14.57;;;3.50;;
35977;SDS011;22056;0.000;0.000;2022-08-19T14:49:05;7.88;;;3.00;;
35977;SDS011;22056;0.000;0.000;2022-08-19T14:51:32;10.98;;;2.90;;
35977;SDS011;22056;0.000;0.000;2022-08-19T14:53:58;9.68;;;2.95;;
35977;SDS011;22056;0.000;0.000;2022-08-19T14:56:26;7.80;;;2.30;;
35977;SDS011;22056;0.000;0.000;2022-08-19T14:58:53;7.85;;;2.70;;
35977;SDS011;22056;0.000;0.000;2022-08-19T15:01:20;10.63;;;2.78;;
35977;SDS011;22056;0.000;0.000;2022-08-19T15:03:47;8.23;;;2.60;;
35977;SDS011;22056;0.000;0.000;2022-08-19T15:06:14;7.43;;;2.08;;
35977;SDS011;22056;0.000;0.000;2022-08-19T15:08:40;7.55;;;2.22;;
35977;SDS011;22056;0.000;0.000;2022-08-19T15:11:12;9.30;;;2.40;;
35977;SDS011;22056;0.000;0.000;2022-08-19T15:13:39;6.57;;;2.70;;
35977;SDS011;22056;0.000;0.000;2022-08-19T15:16:06;8.05;;;2.33;;
35977;SDS011;22056;0.000;0.000;2022-08-19T15:18:32;6.85;;;2.10;;
35977;SDS011;22056;0.000;0.000;2022-08-19T15:21:00;3.95;;;2.20;;